createdAt,value
2022-10-02T00:02:31.539Z,94.7
2022-10-02T00:05:31.556Z,94.8
2022-10-02T00:08:31.598Z,94.8
2022-10-02T00:11:31.590Z,94.9
2022-10-02T00:14:31.609Z,94.9
2022-10-02T00:17:31.635Z,94.9
2022-10-02T00:20:31.652Z,94.8
2022-10-02T00:23:31.664Z,94.8
2022-10-02T00:26:31.710Z,94.8
2022-10-02T00:29:31.713Z,94.8
2022-10-02T00:32:31.726Z,94.9
2022-10-02T00:35:31.741Z,94.8
2022-10-02T00:38:31.757Z,94.6
2022-10-02T00:41:31.777Z,94.7
2022-10-02T00:44:31.913Z,94.8
2022-10-02T00:47:31.823Z,94.8
2022-10-02T00:50:31.839Z,94.6
2022-10-02T00:53:31.845Z,94.5
2022-10-02T00:56:31.854Z,94.2
2022-10-02T00:59:31.868Z,93.7
2022-10-02T01:02:32.027Z,93.6
2022-10-02T01:05:31.881Z,93.4
2022-10-02T01:08:31.877Z,93.1
2022-10-02T01:11:31.883Z,92.7
2022-10-02T01:14:31.894Z,92.5
2022-10-02T01:17:31.894Z,92.4
2022-10-02T01:20:31.912Z,92
2022-10-02T01:23:31.897Z,91.9
2022-10-02T01:26:31.896Z,91.8
2022-10-02T01:29:31.918Z,91.8
2022-10-02T01:32:31.897Z,91.7
2022-10-02T01:35:31.897Z,91.8
2022-10-02T01:38:31.922Z,91.8
2022-10-02T01:41:31.907Z,91.9
2022-10-02T01:44:31.951Z,92
2022-10-02T01:47:31.903Z,91.9
2022-10-02T01:50:31.908Z,91.8
2022-10-02T01:53:31.911Z,91.7
2022-10-02T01:56:31.938Z,91.7
2022-10-02T01:59:31.929Z,91.8
2022-10-02T02:02:31.975Z,91.9
2022-10-02T02:05:31.926Z,92
2022-10-02T02:08:31.973Z,92.2
2022-10-02T02:11:31.977Z,92.2
2022-10-02T02:14:32.026Z,92.2
2022-10-02T02:17:31.984Z,92.4
2022-10-02T02:20:31.980Z,92.6
2022-10-02T02:23:31.986Z,93
2022-10-02T02:26:31.987Z,93.3
2022-10-02T02:29:31.998Z,93.4
2022-10-02T02:32:32.015Z,93.2
2022-10-02T02:35:31.987Z,93
2022-10-02T02:38:31.987Z,92.6
2022-10-02T02:41:32.002Z,92.5
2022-10-02T02:44:32.011Z,92.4
2022-10-02T02:47:31.991Z,92.4
2022-10-02T02:50:32.023Z,92.4
2022-10-02T02:53:31.998Z,92.3
2022-10-02T02:56:32.004Z,92.4
2022-10-02T02:59:32.023Z,92.6
2022-10-02T03:02:32.043Z,92.8
2022-10-02T03:05:32.011Z,93.1
2022-10-02T03:08:32.031Z,93.2
2022-10-02T03:11:32.005Z,93.4
2022-10-02T03:14:32.045Z,93.5
2022-10-02T03:17:32.008Z,93.7
2022-10-02T03:20:32.010Z,94.2
2022-10-02T03:23:32.016Z,94
2022-10-02T03:26:32.039Z,94.2
2022-10-02T03:29:32.033Z,94.2
2022-10-02T03:32:32.023Z,94.2
2022-10-02T03:35:32.022Z,94.4
2022-10-02T03:38:32.045Z,94.6
2022-10-02T03:41:32.036Z,94.5
2022-10-02T03:44:32.071Z,94.5
2022-10-02T03:47:32.040Z,94.5
2022-10-02T03:50:36.160Z,94.4
2022-10-02T03:53:32.040Z,94.2
2022-10-02T03:56:32.043Z,94.1
2022-10-02T03:59:32.063Z,94
2022-10-02T04:02:32.072Z,93.9
2022-10-02T04:05:32.047Z,93.8
2022-10-02T04:08:32.054Z,93.7
2022-10-02T04:11:32.059Z,93.7
2022-10-02T04:14:32.060Z,93.5
2022-10-02T04:17:32.054Z,93.7
2022-10-02T04:20:32.087Z,93.7
2022-10-02T04:23:32.059Z,94
2022-10-02T04:26:32.072Z,94.3
2022-10-02T04:29:32.083Z,94.4
2022-10-02T04:32:32.067Z,94.7
2022-10-02T04:35:32.072Z,94.8
2022-10-02T04:38:32.105Z,95.2
2022-10-02T04:41:32.078Z,95.2
2022-10-02T04:44:32.100Z,95.5
2022-10-02T04:47:32.086Z,95.5
2022-10-02T04:50:32.095Z,95.5
2022-10-02T04:53:32.093Z,95.5
2022-10-02T04:56:32.119Z,95.6
2022-10-02T04:59:32.121Z,95.6
2022-10-02T05:02:32.096Z,95.6
2022-10-02T05:05:32.102Z,95.5
2022-10-02T05:08:32.109Z,95.7
2022-10-02T05:11:32.121Z,95.7
2022-10-02T05:14:32.143Z,95.7
2022-10-02T05:17:32.121Z,96
2022-10-02T05:20:32.126Z,96.1
2022-10-02T05:23:32.123Z,96.2
2022-10-02T05:26:32.130Z,96.2
2022-10-02T05:29:32.142Z,96.3
2022-10-02T05:32:32.377Z,96.3
2022-10-02T05:35:32.141Z,96.4
2022-10-02T05:38:32.145Z,96.5
2022-10-02T05:41:32.151Z,96.5
2022-10-02T05:44:32.158Z,96.5
2022-10-02T05:47:32.150Z,96.4
2022-10-02T05:50:32.179Z,96.2
2022-10-02T05:53:32.161Z,96
2022-10-02T05:56:32.155Z,95.9
2022-10-02T05:59:32.178Z,95.8
2022-10-02T06:02:35.553Z,95.7
2022-10-02T06:05:32.177Z,95.4
2022-10-02T06:08:32.200Z,95.1
2022-10-02T06:11:32.180Z,94.8
2022-10-02T06:14:32.200Z,94.5
2022-10-02T06:17:32.188Z,94.2
2022-10-02T06:20:32.190Z,93.8
2022-10-02T06:23:32.194Z,93.3
2022-10-02T06:26:32.215Z,93
2022-10-02T06:29:32.220Z,92.7
2022-10-02T06:32:32.207Z,92.7
2022-10-02T06:35:32.215Z,92.8
2022-10-02T06:38:32.219Z,93.1
2022-10-02T06:41:32.219Z,93.2
2022-10-02T06:44:32.258Z,93.4
2022-10-02T06:47:32.235Z,93
2022-10-02T06:50:32.240Z,92.3
2022-10-02T06:53:32.257Z,91.1
2022-10-02T06:56:32.240Z,90.2
2022-10-02T06:59:32.246Z,89.3
2022-10-02T07:02:32.326Z,87.8
2022-10-02T07:05:32.263Z,87
2022-10-02T07:08:32.259Z,85.5
2022-10-02T07:11:32.263Z,85.4
2022-10-02T07:14:32.286Z,86
2022-10-02T07:17:32.271Z,86.9
2022-10-02T07:20:32.305Z,87
2022-10-02T07:23:32.282Z,86.2
2022-10-02T07:26:32.280Z,86.1
2022-10-02T07:29:32.300Z,85.7
2022-10-02T07:32:32.311Z,84.3
2022-10-02T07:35:32.298Z,83.4
2022-10-02T07:38:32.450Z,82.4
2022-10-02T07:41:32.306Z,81.6
2022-10-02T07:44:32.525Z,79.5
2022-10-02T07:47:32.456Z,79.1
2022-10-02T07:50:32.421Z,78.5
2022-10-02T07:53:32.457Z,77.4
2022-10-02T07:56:32.360Z,77.4
2022-10-02T07:59:32.366Z,77.3
2022-10-02T08:02:32.403Z,78.7
2022-10-02T08:05:32.357Z,81.1
2022-10-02T08:08:32.359Z,83.6
2022-10-02T08:11:32.370Z,85.1
2022-10-02T08:14:32.408Z,85.6
2022-10-02T08:17:32.371Z,86.1
2022-10-02T08:20:32.380Z,87
2022-10-02T08:23:32.387Z,86.8
2022-10-02T08:26:35.536Z,86.5
2022-10-02T08:29:32.406Z,84.9
2022-10-02T08:32:34.653Z,84
2022-10-02T08:35:32.405Z,83.4
2022-10-02T08:38:32.410Z,82.1
2022-10-02T08:41:32.418Z,81
2022-10-02T08:44:36.090Z,80.1
2022-10-02T08:47:32.423Z,78.8
2022-10-02T08:50:32.448Z,77.8
2022-10-02T08:53:32.434Z,76.5
2022-10-02T08:56:32.440Z,77.5
2022-10-02T08:59:32.459Z,77.5
2022-10-02T09:02:32.483Z,77.7
2022-10-02T09:05:32.451Z,78.9
2022-10-02T09:08:32.519Z,79.9
2022-10-02T09:11:32.466Z,80.4
2022-10-02T09:14:32.481Z,79
2022-10-02T09:17:32.477Z,77.9
2022-10-02T09:20:32.486Z,77.5
2022-10-02T09:23:32.492Z,77.6
2022-10-02T09:26:32.516Z,79.8
2022-10-02T09:29:32.525Z,79.5
2022-10-02T09:32:32.517Z,78.1
2022-10-02T09:35:32.528Z,75.9
2022-10-02T09:38:35.685Z,76.7
2022-10-02T09:41:32.538Z,76.8
2022-10-02T09:44:32.573Z,76.3
2022-10-02T09:47:32.544Z,75
2022-10-02T09:50:32.552Z,72
2022-10-02T09:53:32.563Z,70.6
2022-10-02T09:56:32.562Z,67.4
2022-10-02T09:59:32.588Z,67.8
2022-10-02T10:02:32.671Z,66.1
2022-10-02T10:05:32.579Z,67
2022-10-02T10:08:32.593Z,67.9
2022-10-02T10:11:32.586Z,68.2
2022-10-02T10:14:32.608Z,67.4
2022-10-02T10:17:32.595Z,65.6
2022-10-02T10:20:32.630Z,66
2022-10-02T10:23:32.607Z,65.5
2022-10-02T10:26:32.612Z,66.1
2022-10-02T10:29:32.629Z,67.4
2022-10-02T10:32:32.617Z,67.8
2022-10-02T10:35:32.621Z,67
2022-10-02T10:38:32.650Z,66.9
2022-10-02T10:41:32.637Z,65.4
2022-10-02T10:44:32.650Z,64.9
2022-10-02T10:47:32.627Z,66
2022-10-02T10:50:32.639Z,65.1
2022-10-02T10:53:32.639Z,64.8
2022-10-02T10:56:32.673Z,64.2
2022-10-02T10:59:32.655Z,64.7
2022-10-02T11:02:32.692Z,65
2022-10-02T11:05:32.646Z,65.9
2022-10-02T11:08:32.659Z,66.6
2022-10-02T11:11:32.655Z,66.3
2022-10-02T11:14:32.689Z,65.8
2022-10-02T11:17:32.661Z,65
2022-10-02T11:20:32.658Z,63.5
2022-10-02T11:23:32.659Z,64.1
2022-10-02T11:26:32.664Z,63.6
2022-10-02T11:29:32.679Z,62.3
2022-10-02T11:32:32.693Z,62.1
2022-10-02T11:35:32.678Z,63.1
2022-10-02T11:38:32.688Z,66.7
2022-10-02T11:41:32.686Z,67.6
2022-10-02T11:44:32.712Z,68.7
2022-10-02T11:47:32.702Z,68.6
2022-10-02T11:50:32.738Z,68.3
2022-10-02T11:53:32.719Z,67
2022-10-02T11:56:32.723Z,67.1
2022-10-02T11:59:32.743Z,66.9
2022-10-02T12:02:32.833Z,67.1
2022-10-02T12:05:32.732Z,65.9
2022-10-02T12:08:32.762Z,64.8
2022-10-02T12:11:32.752Z,66.1
2022-10-02T12:14:32.792Z,66.6
2022-10-02T12:17:32.758Z,67.3
2022-10-02T12:20:32.775Z,68
2022-10-02T12:23:32.769Z,74.3
2022-10-02T12:26:32.804Z,78.6
2022-10-02T12:29:32.794Z,82.8
2022-10-02T12:32:32.795Z,84.5
2022-10-02T12:35:32.807Z,86.2
2022-10-02T12:38:32.800Z,86.9
2022-10-02T12:41:32.814Z,87.2
2022-10-02T12:44:32.855Z,86.7
2022-10-02T12:47:32.824Z,86.7
2022-10-02T12:50:32.833Z,85.9
2022-10-02T12:53:32.845Z,85.6
2022-10-02T12:56:32.998Z,85.2
2022-10-02T12:59:33.030Z,85.1
2022-10-02T13:02:49.424Z,85.7
2022-10-02T13:05:32.871Z,84.1
2022-10-02T13:08:32.875Z,84.2
2022-10-02T13:11:32.890Z,84.2
2022-10-02T13:14:32.903Z,84.8
2022-10-02T13:17:32.886Z,85.1
2022-10-02T13:20:32.926Z,85.5
2022-10-02T13:23:32.907Z,85.7
2022-10-02T13:26:32.909Z,85.8
2022-10-02T13:29:32.924Z,85.4
2022-10-02T13:32:32.915Z,85.1
2022-10-02T13:35:32.920Z,84.1
2022-10-02T13:38:32.942Z,83.5
2022-10-02T13:41:32.932Z,82.7
2022-10-02T13:44:32.934Z,80.9
2022-10-02T13:47:32.923Z,81.9
2022-10-02T13:50:32.927Z,81.1
2022-10-02T13:53:32.937Z,78.5
2022-10-02T13:56:32.952Z,79.1
2022-10-02T13:59:32.944Z,79
2022-10-02T14:02:32.935Z,77.5
2022-10-02T14:05:32.956Z,77.1
2022-10-02T14:08:32.939Z,77.3
2022-10-02T14:11:32.943Z,78.3
2022-10-02T14:14:32.976Z,78.8
2022-10-02T14:17:32.946Z,78
2022-10-02T14:20:32.953Z,76.6
2022-10-02T14:23:32.951Z,76.5
2022-10-02T14:26:32.948Z,77
2022-10-02T14:29:32.965Z,77.3
2022-10-02T14:32:32.976Z,77.5
2022-10-02T14:35:32.965Z,77.9
2022-10-02T14:38:32.964Z,78
2022-10-02T14:41:32.961Z,78.4
2022-10-02T14:44:32.976Z,78.7
2022-10-02T14:47:32.967Z,78.3
2022-10-02T14:50:32.990Z,77.7
2022-10-02T14:53:32.968Z,76.9
2022-10-02T14:56:32.972Z,75.4
2022-10-02T14:59:32.976Z,75.4
2022-10-02T15:02:32.976Z,74.2
2022-10-02T15:05:32.982Z,72.4
2022-10-02T15:08:33.001Z,72.8
2022-10-02T15:11:32.984Z,71.5
2022-10-02T15:14:32.997Z,71.6
2022-10-02T15:17:32.987Z,66.3
2022-10-02T15:20:32.992Z,67
2022-10-02T15:23:32.989Z,68.7
2022-10-02T15:26:33.011Z,69.5
2022-10-02T15:29:33.004Z,70.8
2022-10-02T15:32:32.988Z,71.7
2022-10-02T15:35:32.988Z,72.7
2022-10-02T15:38:33.001Z,73.2
2022-10-02T15:41:32.999Z,73.6
2022-10-02T15:44:33.033Z,74.2
2022-10-02T15:47:33.002Z,74.4
2022-10-02T15:50:32.994Z,75.1
2022-10-02T15:53:33.008Z,75.1
2022-10-02T15:56:33.009Z,75.2
2022-10-02T15:59:33.021Z,75.5
2022-10-02T16:02:33.102Z,75.2
2022-10-02T16:05:33.008Z,75.3
2022-10-02T16:08:33.015Z,75.5
2022-10-02T16:11:33.019Z,76
2022-10-02T16:14:33.025Z,76.6
2022-10-02T16:17:33.020Z,77.2
2022-10-02T16:20:33.046Z,77.9
2022-10-02T16:23:33.027Z,78.3
2022-10-02T16:26:33.028Z,78.9
2022-10-02T16:29:33.046Z,79.4
2022-10-02T16:32:33.032Z,79.8
2022-10-02T16:35:33.033Z,80.3
2022-10-02T16:38:33.067Z,80.6
2022-10-02T16:41:33.041Z,80.5
2022-10-02T16:44:33.050Z,80.9
2022-10-02T16:47:33.038Z,81.1
2022-10-02T16:50:33.042Z,81.4
2022-10-02T16:53:33.039Z,81.6
2022-10-02T16:56:33.071Z,82
2022-10-02T16:59:33.073Z,82.1
2022-10-02T17:02:33.067Z,82.2
2022-10-02T17:05:33.060Z,82.1
2022-10-02T17:08:33.058Z,82.4
2022-10-02T17:11:33.057Z,82.7
2022-10-02T17:14:33.098Z,83
2022-10-02T17:17:33.060Z,83
2022-10-02T17:20:33.063Z,83
2022-10-02T17:23:33.068Z,83.1
2022-10-02T17:26:33.072Z,83.3
2022-10-02T17:29:33.084Z,83.6
2022-10-02T17:32:33.101Z,84.1
2022-10-02T17:35:33.078Z,84.5
2022-10-02T17:38:33.087Z,85
2022-10-02T17:41:33.094Z,85.3
2022-10-02T17:44:33.104Z,85.6
2022-10-02T17:47:33.094Z,85.9
2022-10-02T17:50:33.126Z,86.5
2022-10-02T17:53:33.097Z,86.8
2022-10-02T17:56:33.178Z,86.9
2022-10-02T17:59:33.122Z,87.4
2022-10-02T18:02:33.192Z,87.9
2022-10-02T18:05:33.120Z,88.1
2022-10-02T18:08:33.136Z,88.6
2022-10-02T18:11:33.117Z,89.1
2022-10-02T18:14:33.127Z,89.2
2022-10-02T18:17:33.124Z,89.5
2022-10-02T18:20:33.122Z,89.9
2022-10-02T18:23:33.125Z,90.2
2022-10-02T18:26:33.152Z,90.6
2022-10-02T18:29:33.141Z,90.9
2022-10-02T18:32:33.195Z,91.2
2022-10-02T18:35:33.135Z,91.1
2022-10-02T18:38:33.142Z,91.4
2022-10-02T18:41:33.140Z,91.3
2022-10-02T18:44:33.210Z,91.4
2022-10-02T18:47:33.146Z,91.6
2022-10-02T18:50:33.153Z,92.2
2022-10-02T18:53:33.153Z,92.1
2022-10-02T18:56:33.154Z,92.3
2022-10-02T18:59:33.169Z,92.2
2022-10-02T19:02:33.235Z,92.2
2022-10-02T19:05:33.165Z,92.5
2022-10-02T19:08:33.161Z,92.6
2022-10-02T19:11:33.172Z,92.6
2022-10-02T19:14:33.177Z,92.6
2022-10-02T19:17:33.167Z,92.6
2022-10-02T19:20:33.192Z,92.6
2022-10-02T19:23:33.179Z,92.4
2022-10-02T19:26:33.210Z,92.2
2022-10-02T19:29:33.208Z,92
2022-10-02T19:32:33.189Z,91.8
2022-10-02T19:35:33.186Z,91.5
2022-10-02T19:38:33.211Z,91.3
2022-10-02T19:41:33.219Z,91.1
2022-10-02T19:44:33.214Z,91.2
2022-10-02T19:47:33.202Z,91.3
2022-10-02T19:50:33.199Z,91.5
2022-10-02T19:53:33.204Z,91.7
2022-10-02T19:56:33.232Z,91.9
2022-10-02T19:59:33.221Z,92
2022-10-02T20:02:33.258Z,92.3
2022-10-02T20:05:33.215Z,92.2
2022-10-02T20:08:33.229Z,92.2
2022-10-02T20:11:33.227Z,92.2
2022-10-02T20:14:33.265Z,92.2
2022-10-02T20:17:33.234Z,92
2022-10-02T20:20:33.234Z,92.1
2022-10-02T20:23:33.236Z,92.1
2022-10-02T20:26:33.288Z,92.1
2022-10-02T20:29:33.255Z,92.2
2022-10-02T20:32:33.274Z,92.5
2022-10-02T20:35:33.254Z,92.6
2022-10-02T20:38:33.250Z,92.6
2022-10-02T20:41:33.252Z,92.6
2022-10-02T20:44:33.280Z,92.9
2022-10-02T20:47:33.258Z,93.1
2022-10-02T20:50:33.292Z,93.2
2022-10-02T20:53:33.266Z,93.3
2022-10-02T20:56:33.272Z,93.5
2022-10-02T20:59:33.285Z,93.5
2022-10-02T21:02:33.346Z,93.7
2022-10-02T21:05:33.279Z,93.6
2022-10-02T21:08:33.316Z,93.4
2022-10-02T21:11:33.289Z,93.6
2022-10-02T21:14:33.309Z,93.8
2022-10-02T21:17:33.295Z,93.7
2022-10-02T21:20:50.060Z,93.8
2022-10-02T21:23:33.311Z,94
2022-10-02T21:26:33.328Z,94
2022-10-02T21:29:33.323Z,94
2022-10-02T21:32:33.323Z,94
2022-10-02T21:35:33.315Z,94
2022-10-02T21:38:33.327Z,94.1
2022-10-02T21:41:33.329Z,94.1
2022-10-02T21:44:33.382Z,94.1
2022-10-02T21:47:33.344Z,94.2
2022-10-02T21:50:33.343Z,94.3
2022-10-02T21:53:33.355Z,94.4
2022-10-02T21:56:33.356Z,94.3
2022-10-02T21:59:33.371Z,94.3
2022-10-02T22:02:33.384Z,94.2
2022-10-02T22:05:33.409Z,94.1
2022-10-02T22:08:33.396Z,93.9
2022-10-02T22:11:33.383Z,93.9
2022-10-02T22:14:33.397Z,93.9
2022-10-02T22:17:33.388Z,94
2022-10-02T22:20:33.476Z,94
2022-10-02T22:23:33.396Z,94.2
2022-10-02T22:26:33.392Z,94.1
2022-10-02T22:29:33.423Z,94
2022-10-02T22:32:33.405Z,94.1
2022-10-02T22:35:33.414Z,94
2022-10-02T22:38:33.447Z,93.9
2022-10-02T22:41:33.419Z,94
2022-10-02T22:44:33.446Z,93.9
2022-10-02T22:47:33.427Z,93.9
2022-10-02T22:50:33.431Z,93.9
2022-10-02T22:53:33.437Z,94
2022-10-02T22:56:33.468Z,94.1
2022-10-02T22:59:33.457Z,94.4
2022-10-02T23:02:33.488Z,94.2
2022-10-02T23:05:33.454Z,94.3
2022-10-02T23:08:33.461Z,94.3
2022-10-02T23:11:33.471Z,94.4
2022-10-02T23:14:33.508Z,94.3
2022-10-02T23:17:33.466Z,94.4
2022-10-02T23:20:33.482Z,94.5
2022-10-02T23:23:33.476Z,94.4
2022-10-02T23:26:33.490Z,94.3
2022-10-02T23:29:33.499Z,94.3
2022-10-02T23:32:33.581Z,94.5
2022-10-02T23:35:33.498Z,94.3
2022-10-02T23:38:33.501Z,94.5
2022-10-02T23:41:33.507Z,94.5
2022-10-02T23:44:33.512Z,94.7
2022-10-02T23:47:33.527Z,94.8
2022-10-02T23:50:33.538Z,94.8
2022-10-02T23:53:33.517Z,94.9
2022-10-02T23:56:33.529Z,94.9
2022-10-02T23:59:33.524Z,95
